Saugatuck, MI

8:32 PM EST on March 02, 2015 (GMT -0500)
Muskegon County | Change Station
CLOSE
Current Station
Airport
Location: Muskegon,
Elevation: 633 ft
Nearby Weather Stations
Active Advisory: Winter Weather Advisory

Elev 633 ft 43.17 °N, 86.24 °W | Updated 37 minutes ago

Partly Cloudy
Partly Cloudy
23 °F
Feels Like 18 °F
N
4
Wind Variable Wind from South

Today
High -- | Low -- °F
--% Chance of Precip.
Yesterday
High -- | Low -- °F
Precip. -- in
7:19 AM 6:35 PM
Waxing Gibbous, 94% visible
Pressure 30.42 in
Visibility 10.0 miles
Clouds Mostly Cloudy 15000 ft
Windchill 18 °F
Dew Point 13 °F
Humidity 65%
Rainfall 0.00 in
Snow Depth Not available.
UV 0 out of 12
Pollen .30 out of 12
Air Quality Not available.
Flu Activity Not available.
METAR KMKG 030055Z 17003KT 10SM BKN150 M05/M11 A3038 RMK AO2 SLP299 T10501106

More Conditions Fewer Conditions

Pressure 30.42 in
Visibility 10.0 miles
Clouds Mostly Cloudy 15000 ft
Windchill 18 °F
Dew Point 13 °F
Humidity 65%
Rainfall 0.00 in
Snow Depth Not available.
UV 0 out of 12
Pollen .30 out of 12
Air Quality Not available.
Flu Activity Not available.
METAR KMKG 030055Z 17003KT 10SM BKN150 M05/M11 A3038 RMK AO2 SLP299 T10501106

More Conditions Fewer Conditions

10-Day Weather Forecast

Almanac

Astronomy

Mar. 02, 2015 Rise Set
Actual Time
Civil Twilight
Nautical Twilight
Astronomical Twilight
Moon
Length of Visible Light
Length of Day
Tomorrow will be .
, % of the Moon is Illuminated

Today's Extremes

State Highs State Lows

Community

WunderPhotos

Upload Photos

1,802,021 photos uploaded!

WunderBlogs® & News

Nearby

Air Quality

  Air Quality AQ Index Pollutant
Not available.

Snow Depth

Station Depth Elevation

Earthquake Activity

City Distance Mag. Time & Date
Minimum magnitude displayed is 2.5.

Coastal Water Temperatures

Place Temperature

Nearby Weather Stations

Winter Weather Advisory
Statement as of 3:57 PM EST on March 02, 2015

... Winter Weather Advisory in effect from 7 am to 8 PM EST
Tuesday...

The National Weather Service in Grand Rapids has issued a Winter
Weather Advisory for snow... sleet and freezing rain... which is in
effect from 7 am to 8 PM EST Tuesday.

Hazardous weather...

* 1 to 3 inches of snow is expected.

* Snow will quickly mix with sleet and freezing rain Tuesday morning.

* Ice accumulations of one to two tenths of an inch are possible.

* Freezing drizzle is possible Tuesday evening.

Impacts...

* slippery travel is expected due to snow and ice.

* Slower travel speeds anticipated as Road conditions should
   deteriorate.

* Isolated power outages are possible as icing on tree branches
   may result in them falling on power lines.

Precautionary/preparedness actions...

* be prepared for the slippery Road conditions by allowing extra
   time to reach your destination.

* The Michigan Department of Transportation reminds motorists to
   adjust speeds based on the conditions... and to take it slow in
   ice and snow.